createdAt,value
2023-01-21T00:01:44.865Z,4.67
2023-01-21T00:04:14.880Z,4.38
2023-01-21T00:06:46.081Z,4.53
2023-01-21T00:09:16.426Z,4.95
2023-01-21T00:11:47.758Z,1.84
2023-01-21T00:14:17.434Z,4.52
2023-01-21T00:16:47.277Z,2.53
2023-01-21T00:19:17.539Z,2.53
2023-01-21T00:21:47.407Z,3.53
2023-01-21T00:24:17.315Z,4.74
2023-01-21T00:26:48.556Z,4.56
2023-01-21T00:29:19.055Z,3.28
2023-01-21T00:31:49.446Z,4.71
2023-01-21T00:34:19.725Z,4.18
2023-01-21T00:36:49.472Z,4.65
2023-01-21T00:39:19.800Z,4.47
2023-01-21T00:41:51.139Z,3.68
2023-01-21T00:44:21.360Z,4.53
2023-01-21T00:46:51.199Z,4.40
2023-01-21T00:49:21.472Z,4.78
2023-01-21T00:51:52.239Z,3.87
2023-01-21T00:54:22.875Z,3.61
2023-01-21T00:56:54.076Z,4.46
2023-01-21T00:59:24.223Z,4.31
2023-01-21T01:01:54.639Z,2.58
2023-01-21T01:04:24.937Z,4.12
2023-01-21T01:06:55.568Z,4.65
2023-01-21T01:09:25.449Z,4.54
2023-01-21T01:11:57.129Z,4.31
2023-01-21T01:14:27.470Z,3.83
2023-01-21T01:16:57.277Z,4.08
2023-01-21T01:19:27.175Z,4.53
2023-01-21T01:21:58.980Z,3.69
2023-01-21T01:24:30.054Z,4.01
2023-01-21T01:27:00.959Z,3.61
2023-01-21T01:29:30.580Z,2.68
2023-01-21T01:32:00.249Z,3.33
2023-01-21T01:34:29.863Z,4.81
2023-01-21T01:37:00.206Z,4.26
2023-01-21T01:39:30.508Z,3.69
2023-01-21T01:42:02.887Z,3.77
2023-01-21T01:45:07.478Z,3.94
2023-01-21T01:47:39.178Z,4.63
2023-01-21T01:50:12.996Z,3.05
2023-01-21T01:52:45.324Z,3.21
2023-01-21T01:55:16.609Z,4.47
2023-01-21T01:57:51.344Z,4.26
2023-01-21T02:00:22.910Z,4.78
2023-01-21T02:03:08.458Z,4.53
2023-01-21T02:05:39.892Z,3.38
2023-01-21T02:08:10.164Z,4.54
2023-01-21T02:10:40.367Z,4.62
2023-01-21T02:13:12.480Z,4.36
2023-01-21T02:15:52.614Z,4.82
2023-01-21T02:18:34.247Z,4.53
2023-01-21T02:21:38.840Z,4.40
2023-01-21T02:24:35.134Z,4.54
2023-01-21T02:27:33.387Z,4.53
2023-01-21T02:30:36.955Z,4.46
2023-01-21T02:33:39.101Z,4.29
2023-01-21T02:36:23.732Z,3.92
2023-01-21T02:39:01.257Z,4.38
2023-01-21T02:41:40.194Z,4.53
2023-01-21T02:44:18.187Z,4.07
2023-01-21T02:46:53.932Z,3.99
2023-01-21T02:49:32.159Z,3.95
2023-01-21T02:52:01.753Z,4.04
2023-01-21T02:54:53.162Z,3.18
2023-01-21T02:57:45.656Z,3.60
2023-01-21T03:00:19.870Z,4.04
2023-01-21T03:03:20.100Z,4.10
2023-01-21T03:06:18.703Z,4.53
2023-01-21T03:08:55.342Z,3.80
2023-01-21T03:11:25.660Z,3.76
2023-01-21T03:14:20.543Z,3.92
2023-01-21T03:16:59.096Z,3.81
2023-01-21T03:19:36.802Z,3.83
2023-01-21T03:22:12.417Z,3.78
2023-01-21T03:24:46.923Z,3.56
2023-01-21T03:27:21.297Z,3.91
2023-01-21T03:29:56.188Z,3.79
2023-01-21T03:32:27.957Z,3.97
2023-01-21T03:34:59.986Z,3.84
2023-01-21T03:37:35.121Z,3.20
2023-01-21T03:40:19.268Z,4.46
2023-01-21T03:42:51.683Z,4.03
2023-01-21T03:45:32.563Z,4.34
2023-01-21T03:48:08.150Z,2.80
2023-01-21T03:50:42.470Z,4.38
2023-01-21T03:53:13.328Z,2.73
2023-01-21T03:55:42.690Z,3.89
2023-01-21T03:58:12.368Z,3.03
2023-01-21T04:00:42.565Z,3.81
2023-01-21T04:03:12.755Z,1.71
2023-01-21T04:05:42.803Z,1.78
2023-01-21T04:08:14.147Z,1.54
2023-01-21T04:10:44.565Z,1.60
2023-01-21T04:13:14.995Z,1.58
2023-01-21T04:15:44.900Z,1.65
2023-01-21T04:18:14.507Z,1.43
2023-01-21T04:20:44.475Z,3.36
2023-01-21T04:23:15.919Z,3.01
2023-01-21T04:25:45.938Z,3.70
2023-01-21T04:28:16.216Z,3.60
2023-01-21T04:30:47.821Z,3.57
2023-01-21T04:33:18.877Z,1.58
2023-01-21T04:35:48.466Z,2.58
2023-01-21T04:38:19.800Z,2.74
2023-01-21T04:40:49.857Z,3.57
2023-01-21T04:43:19.873Z,3.75
2023-01-21T04:45:51.414Z,2.88
2023-01-21T04:48:21.687Z,3.21
2023-01-21T04:50:51.280Z,3.54
2023-01-21T04:53:22.167Z,2.77
2023-01-21T04:55:53.354Z,3.53
2023-01-21T04:58:23.087Z,2.78
2023-01-21T05:00:53.764Z,2.69
2023-01-21T05:03:23.603Z,3.25
2023-01-21T05:05:53.595Z,3.51
2023-01-21T05:08:24.656Z,3.07
2023-01-21T05:10:54.830Z,2.37
2023-01-21T05:13:25.333Z,2.96
2023-01-21T05:15:55.262Z,3.61
2023-01-21T05:18:25.389Z,3.74
2023-01-21T05:20:55.917Z,2.85
2023-01-21T05:23:27.199Z,3.28
2023-01-21T05:26:04.106Z,3.20
2023-01-21T05:28:33.977Z,3.55
2023-01-21T05:31:03.867Z,2.87
2023-01-21T05:33:34.705Z,2.98
2023-01-21T05:36:05.292Z,3.50
2023-01-21T05:38:36.275Z,3.44
2023-01-21T05:41:06.470Z,3.18
2023-01-21T05:43:36.440Z,3.89
2023-01-21T05:46:06.045Z,3.36
2023-01-21T05:48:35.941Z,3.81
2023-01-21T05:51:05.989Z,2.33
2023-01-21T05:53:40.392Z,3.11
2023-01-21T05:56:10.272Z,3.35
2023-01-21T05:58:40.134Z,3.42
2023-01-21T06:01:09.857Z,3.53
2023-01-21T06:03:39.434Z,3.39
2023-01-21T06:06:10.131Z,2.28
2023-01-21T06:08:41.386Z,3.39
2023-01-21T06:11:21.438Z,3.85
2023-01-21T06:13:52.602Z,4.21
2023-01-21T06:16:23.007Z,3.10
2023-01-21T06:18:52.803Z,3.13
2023-01-21T06:21:22.832Z,2.77
2023-01-21T06:23:54.272Z,4.21
2023-01-21T06:26:24.692Z,3.83
2023-01-21T06:28:57.303Z,3.30
2023-01-21T06:31:27.528Z,3.48
2023-01-21T06:33:57.931Z,4.18
2023-01-21T06:36:27.371Z,3.78
2023-01-21T06:38:57.992Z,3.10
2023-01-21T06:41:27.621Z,3.46
2023-01-21T06:43:57.579Z,3.58
2023-01-21T06:46:27.205Z,2.83
2023-01-21T06:48:56.986Z,2.29
2023-01-21T06:51:27.430Z,3.47
2023-01-21T06:53:58.521Z,2.89
2023-01-21T06:56:28.286Z,3.01
2023-01-21T06:58:58.234Z,3.27
2023-01-21T07:01:28.878Z,3.80
2023-01-21T07:04:01.484Z,2.95
2023-01-21T07:06:31.117Z,4.71
2023-01-21T07:09:04.886Z,4.31
2023-01-21T07:11:35.188Z,3.11
2023-01-21T07:14:05.674Z,4.59
2023-01-21T07:16:35.820Z,3.47
2023-01-21T07:19:05.654Z,2.23
2023-01-21T07:21:35.512Z,4.13
2023-01-21T07:24:07.095Z,3.23
2023-01-21T07:26:38.332Z,3.44
2023-01-21T07:29:08.648Z,2.60
2023-01-21T07:31:38.805Z,1.01
2023-01-21T07:34:09.405Z,2.63
2023-01-21T07:36:39.569Z,1.18
2023-01-21T07:39:11.043Z,1.25
2023-01-21T07:41:40.994Z,1.32
2023-01-21T07:44:16.161Z,1.10
2023-01-21T07:46:46.116Z,1.43
2023-01-21T07:49:18.440Z,1.48
2023-01-21T07:51:51.996Z,1.52
2023-01-21T07:54:22.971Z,1.10
2023-01-21T07:56:52.979Z,1.00
2023-01-21T07:59:23.427Z,1.49
2023-01-21T08:01:53.511Z,1.38
2023-01-21T08:04:23.442Z,1.61
2023-01-21T08:06:57.151Z,0.73
2023-01-21T08:09:28.459Z,0.91
2023-01-21T08:11:58.701Z,1.02
2023-01-21T08:14:29.404Z,1.41
2023-01-21T08:16:59.736Z,1.39
2023-01-21T08:19:30.152Z,1.58
2023-01-21T08:22:00.549Z,1.32
2023-01-21T08:24:31.818Z,1.24
2023-01-21T08:27:01.926Z,0.99
2023-01-21T08:29:32.454Z,-0.14
2023-01-21T08:32:03.348Z,1.26
2023-01-21T08:34:33.902Z,0.21
2023-01-21T08:37:03.817Z,2.38
2023-01-21T08:39:34.813Z,1.95
2023-01-21T08:42:04.876Z,1.70
2023-01-21T08:44:35.514Z,1.43
2023-01-21T08:47:05.353Z,1.42
2023-01-21T08:49:35.811Z,1.30
2023-01-21T08:52:06.174Z,1.94
2023-01-21T08:54:36.793Z,3.18
2023-01-21T08:57:07.114Z,1.81
2023-01-21T08:59:43.229Z,0.76
2023-01-21T09:02:13.280Z,1.50
2023-01-21T09:04:43.383Z,2.41
2023-01-21T09:07:13.261Z,3.05
2023-01-21T09:09:49.290Z,3.73
2023-01-21T09:12:19.208Z,3.62
2023-01-21T09:14:49.675Z,1.81
2023-01-21T09:17:19.606Z,0.89
2023-01-21T09:19:50.646Z,1.94
2023-01-21T09:22:32.528Z,1.86
2023-01-21T09:25:10.262Z,0.96
2023-01-21T09:27:40.174Z,1.18
2023-01-21T09:30:11.271Z,1.81
2023-01-21T09:32:52.376Z,1.89
2023-01-21T09:35:22.291Z,3.69
2023-01-21T09:37:52.312Z,3.63
2023-01-21T09:40:23.665Z,2.48
2023-01-21T09:42:53.388Z,2.00
2023-01-21T09:45:23.699Z,2.20
2023-01-21T09:47:55.530Z,2.33
2023-01-21T09:50:25.993Z,2.31
2023-01-21T09:53:05.885Z,2.17
2023-01-21T09:55:42.706Z,2.43
2023-01-21T09:58:23.435Z,2.06
2023-01-21T10:00:56.609Z,2.31
2023-01-21T10:03:34.664Z,3.76
2023-01-21T10:06:19.823Z,4.44
2023-01-21T10:09:24.580Z,2.67
2023-01-21T10:12:13.309Z,4.58
2023-01-21T10:15:21.732Z,4.87
2023-01-21T10:17:56.790Z,3.92
2023-01-21T10:20:31.810Z,3.91
2023-01-21T10:23:07.227Z,4.61
2023-01-21T10:25:38.721Z,4.47
2023-01-21T10:28:17.912Z,4.75
2023-01-21T10:30:53.723Z,4.51
2023-01-21T10:33:25.629Z,4.49
2023-01-21T10:36:30.616Z,3.08
2023-01-21T10:39:10.133Z,0.98
2023-01-21T10:41:55.621Z,3.93
2023-01-21T10:44:39.320Z,2.28
2023-01-21T10:47:21.832Z,2.91
2023-01-21T10:50:03.324Z,2.99
2023-01-21T10:52:41.619Z,2.05
2023-01-21T10:55:27.743Z,1.87
2023-01-21T10:58:03.560Z,2.51
2023-01-21T11:00:39.795Z,2.54
2023-01-21T11:03:16.185Z,2.49
2023-01-21T11:05:49.133Z,2.60
2023-01-21T11:08:21.078Z,2.91
2023-01-21T11:10:55.399Z,2.35
2023-01-21T11:13:25.499Z,2.81
2023-01-21T11:15:57.621Z,2.18
2023-01-21T11:18:31.005Z,2.65
2023-01-21T11:21:03.441Z,1.53
2023-01-21T11:23:35.448Z,1.91
2023-01-21T11:26:08.767Z,2.41
2023-01-21T11:28:40.282Z,2.85
2023-01-21T11:31:14.458Z,2.73
2023-01-21T11:33:44.859Z,2.49
2023-01-21T11:36:17.602Z,2.11
2023-01-21T11:38:50.686Z,4.62
2023-01-21T11:41:23.252Z,4.69
2023-01-21T11:43:54.717Z,4.96
2023-01-21T11:46:36.478Z,5.24
2023-01-21T11:49:30.281Z,4.66
2023-01-21T11:52:19.302Z,3.95
2023-01-21T11:54:50.081Z,3.52
2023-01-21T11:57:37.502Z,2.02
2023-01-21T12:00:22.732Z,1.92
2023-01-21T12:02:57.657Z,1.02
2023-01-21T12:05:33.687Z,1.66
2023-01-21T12:08:06.310Z,1.73
2023-01-21T12:10:39.539Z,1.50
2023-01-21T12:13:21.500Z,1.51
2023-01-21T12:16:06.238Z,1.86
2023-01-21T12:18:52.572Z,1.91
2023-01-21T12:21:30.860Z,1.79
2023-01-21T12:24:15.295Z,1.88
2023-01-21T12:26:47.187Z,1.26
2023-01-21T12:29:37.564Z,1.38
2023-01-21T12:32:13.868Z,1.58
2023-01-21T12:34:48.943Z,1.78
2023-01-21T12:37:26.400Z,2.13
2023-01-21T12:40:01.186Z,2.00
2023-01-21T12:42:37.781Z,1.80
2023-01-21T12:45:14.332Z,1.67
2023-01-21T12:47:48.082Z,2.04
2023-01-21T12:50:24.107Z,2.03
2023-01-21T12:53:14.368Z,0.18
2023-01-21T12:56:09.546Z,1.61
2023-01-21T12:58:42.902Z,1.79
2023-01-21T16:28:23.643Z,2.44
2023-01-21T16:30:55.651Z,2.53
2023-01-21T16:33:24.935Z,3.66
2023-01-21T16:36:13.585Z,3.26
2023-01-21T16:38:53.884Z,1.94
2023-01-21T16:41:42.768Z,0.40
2023-01-21T16:44:24.035Z,2.96
2023-01-21T16:46:56.999Z,3.84
2023-01-21T16:49:30.736Z,1.83
2023-01-21T16:52:02.831Z,1.94
2023-01-21T16:56:35.115Z,3.32
2023-01-21T16:58:50.930Z,3.59
2023-01-21T17:01:23.012Z,4.14
2023-01-21T17:03:53.015Z,2.38
2023-01-21T17:06:25.767Z,3.86
2023-01-21T17:09:00.023Z,3.96
2023-01-21T17:11:31.520Z,2.73
2023-01-21T17:14:08.097Z,2.89
2023-01-21T17:16:43.992Z,3.93
2023-01-21T17:19:25.425Z,4.50
2023-01-21T17:21:57.816Z,3.64
2023-01-21T17:24:30.132Z,4.01
2023-01-21T17:27:12.223Z,3.83
2023-01-21T17:29:44.624Z,3.26
2023-01-21T17:32:33.205Z,1.36
2023-01-21T17:35:16.462Z,2.58
2023-01-21T17:37:53.162Z,2.56
2023-01-21T17:40:34.330Z,4.18
2023-01-21T17:43:38.572Z,4.17
2023-01-21T17:46:21.480Z,3.15
2023-01-21T17:48:57.360Z,3.80
2023-01-21T17:51:32.085Z,3.85
2023-01-21T17:54:41.441Z,4.03
2023-01-21T17:57:35.485Z,3.84
2023-01-21T18:00:40.545Z,1.95
2023-01-21T18:03:13.147Z,3.55
2023-01-21T18:05:46.747Z,3.70
2023-01-21T18:11:53.306Z,4.55
2023-01-21T18:14:25.649Z,4.87
2023-01-21T18:16:55.994Z,4.55
2023-01-21T18:19:31.073Z,4.30
2023-01-21T18:22:02.539Z,4.42
2023-01-21T18:24:32.053Z,3.05
2023-01-21T18:27:03.890Z,4.26
2023-01-21T18:29:32.993Z,4.29
2023-01-21T18:32:03.978Z,4.65
2023-01-21T18:34:34.070Z,4.75
2023-01-21T18:37:09.925Z,4.56
2023-01-21T18:39:39.062Z,4.46
2023-01-21T18:42:17.019Z,4.57
2023-01-21T18:44:46.559Z,4.54
2023-01-21T18:47:17.601Z,4.23
2023-01-21T18:49:49.471Z,4.51
2023-01-21T18:52:21.974Z,4.45
2023-01-21T18:54:51.081Z,4.63
2023-01-21T18:57:23.104Z,4.95
2023-01-21T18:59:52.317Z,4.45
2023-01-21T19:02:22.545Z,4.51
2023-01-21T19:04:51.511Z,4.40
2023-01-21T19:07:24.141Z,4.88
2023-01-21T19:09:53.277Z,4.43
2023-01-21T19:12:24.550Z,4.67
2023-01-21T19:14:54.520Z,3.44
2023-01-21T19:17:35.428Z,2.09
2023-01-21T19:20:04.950Z,4.55
2023-01-21T19:25:26.682Z,4.47
2023-01-21T19:27:59.877Z,4.71
2023-01-21T19:30:31.867Z,4.89
2023-01-21T19:33:03.685Z,3.76
2023-01-21T19:35:35.525Z,4.92
2023-01-21T19:38:12.767Z,3.69
2023-01-21T19:40:42.736Z,5.13
2023-01-21T19:43:21.867Z,4.62
2023-01-21T19:45:52.717Z,4.33
2023-01-21T19:48:24.121Z,4.28
2023-01-21T19:50:53.464Z,5.30
2023-01-21T19:54:14.247Z,5.27
2023-01-21T19:56:52.660Z,4.22
2023-01-21T19:59:24.925Z,4.70
2023-01-21T20:01:54.040Z,5.11
2023-01-21T20:04:34.998Z,4.84
2023-01-21T20:07:05.358Z,4.47
2023-01-21T20:09:34.422Z,5.13
2023-01-21T20:12:06.647Z,5.31
2023-01-21T20:14:35.679Z,5.20
2023-01-21T20:17:08.797Z,5.68
2023-01-21T20:19:41.102Z,5.70
2023-01-21T20:22:13.698Z,5.34
2023-01-21T20:24:51.949Z,5.67
2023-01-21T20:27:24.948Z,5.13
2023-01-21T20:30:14.753Z,5.19
2023-01-21T20:32:46.588Z,4.73
2023-01-21T20:35:26.626Z,4.34
2023-01-21T20:38:02.417Z,4.66
2023-01-21T20:40:31.829Z,5.66
2023-01-21T20:43:11.831Z,5.06
2023-01-21T20:45:45.877Z,5.64
2023-01-21T20:48:21.563Z,4.72
2023-01-21T20:50:51.269Z,5.76
2023-01-21T20:53:26.641Z,4.48
2023-01-21T20:55:58.684Z,3.15
2023-01-21T20:58:29.354Z,2.23
2023-01-21T21:01:02.678Z,2.70
2023-01-21T21:03:31.898Z,2.53
2023-01-21T21:06:05.734Z,2.87
2023-01-21T21:08:34.983Z,1.88
2023-01-21T21:11:04.222Z,2.33
2023-01-21T21:13:40.365Z,2.20
2023-01-21T21:16:20.050Z,4.95
2023-01-21T21:18:49.827Z,5.19
2023-01-21T21:21:23.579Z,5.36
2023-01-21T21:23:53.537Z,5.53
2023-01-21T21:26:24.394Z,5.60
2023-01-21T21:28:55.694Z,5.39
2023-01-21T21:31:26.061Z,5.93
2023-01-21T21:33:57.099Z,5.04
2023-01-21T21:36:27.846Z,5.00
2023-01-21T21:39:01.549Z,4.93
2023-01-21T21:41:53.023Z,5.50
2023-01-21T21:44:29.023Z,5.36
2023-01-21T21:47:19.698Z,5.89
2023-01-21T21:49:49.192Z,5.52
2023-01-21T21:52:18.559Z,5.37
2023-01-21T21:54:47.597Z,5.71
2023-01-21T21:57:16.984Z,5.84
2023-01-21T21:59:47.340Z,5.98
2023-01-21T22:02:16.311Z,5.85
2023-01-21T22:04:45.375Z,5.55
2023-01-21T22:07:17.825Z,5.72
2023-01-21T22:09:54.666Z,5.54
2023-01-21T22:12:29.509Z,5.33
2023-01-21T22:15:00.968Z,5.74
2023-01-21T22:17:30.407Z,5.74
2023-01-21T22:20:00.171Z,5.28
2023-01-21T22:22:29.991Z,5.13
2023-01-21T22:25:11.185Z,5.50
2023-01-21T22:27:40.996Z,5.81
2023-01-21T22:30:29.251Z,5.60
2023-01-21T22:33:04.502Z,4.60
